sensor_id;sensor_type;location;lat;lon;timestamp;temperature;humidity
45535;DHT22;35892;48.798;9.698;2022-12-18T00:01:36;-9.00;99.90
45535;DHT22;35892;48.798;9.698;2022-12-18T00:04:05;-9.00;99.90
45535;DHT22;35892;48.798;9.698;2022-12-18T00:06:33;-9.00;99.90
45535;DHT22;35892;48.798;9.698;2022-12-18T00:09:01;-9.10;99.90
45535;DHT22;35892;48.798;9.698;2022-12-18T00:11:31;-9.10;99.90
45535;DHT22;35892;48.798;9.698;2022-12-18T00:13:59;-9.00;99.90
45535;DHT22;35892;48.798;9.698;2022-12-18T00:16:29;-9.00;99.90
45535;DHT22;35892;48.798;9.698;2022-12-18T00:19:04;-9.00;99.90
45535;DHT22;35892;48.798;9.698;2022-12-18T00:21:36;-9.00;99.90
45535;DHT22;35892;48.798;9.698;2022-12-18T00:24:03;-8.90;99.90
45535;DHT22;35892;48.798;9.698;2022-12-18T00:26:34;-8.90;99.90
45535;DHT22;35892;48.798;9.698;2022-12-18T00:29:06;-8.90;99.90
45535;DHT22;35892;48.798;9.698;2022-12-18T00:31:33;-9.00;99.90
45535;DHT22;35892;48.798;9.698;2022-12-18T00:34:00;-9.10;99.90
45535;DHT22;35892;48.798;9.698;2022-12-18T00:36:33;-9.10;99.90
45535;DHT22;35892;48.798;9.698;2022-12-18T00:39:02;-9.00;99.90
45535;DHT22;35892;48.798;9.698;2022-12-18T00:41:29;-9.10;99.90
45535;DHT22;35892;48.798;9.698;2022-12-18T00:44:17;-9.10;99.90
45535;DHT22;35892;48.798;9.698;2022-12-18T00:46:46;-9.10;99.90
45535;DHT22;35892;48.798;9.698;2022-12-18T00:49:13;-9.10;99.90
45535;DHT22;35892;48.798;9.698;2022-12-18T00:51:40;-9.00;99.90
45535;DHT22;35892;48.798;9.698;2022-12-18T00:54:07;-9.00;99.90
45535;DHT22;35892;48.798;9.698;2022-12-18T00:56:36;-9.10;99.90
45535;DHT22;35892;48.798;9.698;2022-12-18T00:59:14;-9.20;99.90
45535;DHT22;35892;48.798;9.698;2022-12-18T01:01:44;-9.20;99.90
45535;DHT22;35892;48.798;9.698;2022-12-18T01:04:11;-9.20;99.90
45535;DHT22;35892;48.798;9.698;2022-12-18T01:06:38;-9.10;99.90
45535;DHT22;35892;48.798;9.698;2022-12-18T01:09:05;-9.10;99.90
45535;DHT22;35892;48.798;9.698;2022-12-18T01:11:32;-9.00;99.90
45535;DHT22;35892;48.798;9.698;2022-12-18T01:14:01;-8.90;99.90
45535;DHT22;35892;48.798;9.698;2022-12-18T01:16:28;-8.90;99.90
45535;DHT22;35892;48.798;9.698;2022-12-18T01:18:55;-8.90;99.90
45535;DHT22;35892;48.798;9.698;2022-12-18T01:21:23;-8.90;99.90
45535;DHT22;35892;48.798;9.698;2022-12-18T01:23:57;-9.00;99.90
45535;DHT22;35892;48.798;9.698;2022-12-18T01:26:28;-9.10;99.90
45535;DHT22;35892;48.798;9.698;2022-12-18T01:28:56;-9.10;99.90
45535;DHT22;35892;48.798;9.698;2022-12-18T01:31:26;-9.10;99.90
45535;DHT22;35892;48.798;9.698;2022-12-18T01:33:54;-8.90;99.90
45535;DHT22;35892;48.798;9.698;2022-12-18T01:36:29;-9.00;99.90
45535;DHT22;35892;48.798;9.698;2022-12-18T01:38:59;-9.10;99.90
45535;DHT22;35892;48.798;9.698;2022-12-18T01:41:28;-9.10;99.90
45535;DHT22;35892;48.798;9.698;2022-12-18T01:50:02;-9.10;99.90
45535;DHT22;35892;48.798;9.698;2022-12-18T01:52:31;-9.20;99.90
45535;DHT22;35892;48.798;9.698;2022-12-18T01:55:00;-9.20;99.90
45535;DHT22;35892;48.798;9.698;2022-12-18T01:57:28;-9.30;99.90
45535;DHT22;35892;48.798;9.698;2022-12-18T02:00:01;-9.30;99.90
45535;DHT22;35892;48.798;9.698;2022-12-18T02:02:31;-9.30;99.90
45535;DHT22;35892;48.798;9.698;2022-12-18T02:04:58;-9.40;99.90
45535;DHT22;35892;48.798;9.698;2022-12-18T02:10:05;-9.30;99.90
45535;DHT22;35892;48.798;9.698;2022-12-18T02:15:38;-9.20;99.90
45535;DHT22;35892;48.798;9.698;2022-12-18T02:18:28;-9.20;99.90
45535;DHT22;35892;48.798;9.698;2022-12-18T02:21:27;-9.30;99.90
45535;DHT22;35892;48.798;9.698;2022-12-18T02:24:05;-9.40;99.90
45535;DHT22;35892;48.798;9.698;2022-12-18T02:26:42;-9.40;99.90
45535;DHT22;35892;48.798;9.698;2022-12-18T02:29:18;-9.50;99.90
45535;DHT22;35892;48.798;9.698;2022-12-18T02:31:53;-9.50;99.90
45535;DHT22;35892;48.798;9.698;2022-12-18T02:34:26;-9.30;99.90
45535;DHT22;35892;48.798;9.698;2022-12-18T02:36:56;-9.20;99.90
45535;DHT22;35892;48.798;9.698;2022-12-18T02:39:25;-9.30;99.90
45535;DHT22;35892;48.798;9.698;2022-12-18T02:41:55;-9.30;99.90
45535;DHT22;35892;48.798;9.698;2022-12-18T02:44:23;-9.30;99.90
45535;DHT22;35892;48.798;9.698;2022-12-18T02:46:52;-9.30;99.90
45535;DHT22;35892;48.798;9.698;2022-12-18T02:49:33;-9.30;99.90
45535;DHT22;35892;48.798;9.698;2022-12-18T02:52:41;-9.20;99.90
45535;DHT22;35892;48.798;9.698;2022-12-18T02:58:25;-9.30;99.90
45535;DHT22;35892;48.798;9.698;2022-12-18T03:03:41;-9.30;99.90
45535;DHT22;35892;48.798;9.698;2022-12-18T03:06:20;-9.40;99.90
45535;DHT22;35892;48.798;9.698;2022-12-18T03:08:58;-9.40;99.90
45535;DHT22;35892;48.798;9.698;2022-12-18T03:11:28;-9.30;99.90
45535;DHT22;35892;48.798;9.698;2022-12-18T03:14:16;-9.30;99.90
45535;DHT22;35892;48.798;9.698;2022-12-18T03:16:47;-9.20;99.90
45535;DHT22;35892;48.798;9.698;2022-12-18T03:19:19;-9.20;99.90
45535;DHT22;35892;48.798;9.698;2022-12-18T03:21:53;-9.30;99.90
45535;DHT22;35892;48.798;9.698;2022-12-18T03:24:21;-9.30;99.90
45535;DHT22;35892;48.798;9.698;2022-12-18T03:26:53;-9.40;99.90
45535;DHT22;35892;48.798;9.698;2022-12-18T03:29:46;-9.40;99.90
45535;DHT22;35892;48.798;9.698;2022-12-18T03:32:31;-9.40;99.90
45535;DHT22;35892;48.798;9.698;2022-12-18T03:35:02;-9.40;99.90
45535;DHT22;35892;48.798;9.698;2022-12-18T03:37:30;-9.30;99.90
45535;DHT22;35892;48.798;9.698;2022-12-18T03:39:57;-9.30;99.90
45535;DHT22;35892;48.798;9.698;2022-12-18T03:42:48;-9.20;99.90
45535;DHT22;35892;48.798;9.698;2022-12-18T03:45:34;-9.30;99.90
45535;DHT22;35892;48.798;9.698;2022-12-18T03:48:11;-9.30;99.90
45535;DHT22;35892;48.798;9.698;2022-12-18T03:50:52;-9.30;99.90
45535;DHT22;35892;48.798;9.698;2022-12-18T03:56:09;-9.30;99.90
45535;DHT22;35892;48.798;9.698;2022-12-18T03:58:38;-9.40;99.90
45535;DHT22;35892;48.798;9.698;2022-12-18T04:01:08;-9.40;99.90
45535;DHT22;35892;48.798;9.698;2022-12-18T04:03:37;-9.50;99.90
45535;DHT22;35892;48.798;9.698;2022-12-18T04:06:05;-9.40;99.90
45535;DHT22;35892;48.798;9.698;2022-12-18T04:08:33;-9.40;99.90
45535;DHT22;35892;48.798;9.698;2022-12-18T04:11:02;-9.30;99.90
45535;DHT22;35892;48.798;9.698;2022-12-18T04:13:38;-9.40;99.90
45535;DHT22;35892;48.798;9.698;2022-12-18T04:16:08;-9.30;99.90
45535;DHT22;35892;48.798;9.698;2022-12-18T04:18:36;-9.50;99.90
45535;DHT22;35892;48.798;9.698;2022-12-18T04:21:03;-9.40;99.90
45535;DHT22;35892;48.798;9.698;2022-12-18T04:23:30;-9.40;99.90
45535;DHT22;35892;48.798;9.698;2022-12-18T04:25:57;-9.50;99.90
45535;DHT22;35892;48.798;9.698;2022-12-18T04:28:23;-9.40;99.90
45535;DHT22;35892;48.798;9.698;2022-12-18T04:30:50;-9.40;99.90
45535;DHT22;35892;48.798;9.698;2022-12-18T04:33:17;-9.50;99.90
45535;DHT22;35892;48.798;9.698;2022-12-18T04:35:45;-9.70;99.90
45535;DHT22;35892;48.798;9.698;2022-12-18T04:38:12;-9.60;99.90
45535;DHT22;35892;48.798;9.698;2022-12-18T04:40:42;-9.60;99.90
45535;DHT22;35892;48.798;9.698;2022-12-18T04:43:09;-9.60;99.90
45535;DHT22;35892;48.798;9.698;2022-12-18T04:45:39;-9.70;99.90
45535;DHT22;35892;48.798;9.698;2022-12-18T04:48:06;-9.70;99.90
45535;DHT22;35892;48.798;9.698;2022-12-18T04:50:32;-9.70;99.90
45535;DHT22;35892;48.798;9.698;2022-12-18T04:52:59;-9.70;99.90
45535;DHT22;35892;48.798;9.698;2022-12-18T04:55:27;-9.70;99.90
45535;DHT22;35892;48.798;9.698;2022-12-18T04:57:53;-9.60;99.90
45535;DHT22;35892;48.798;9.698;2022-12-18T05:00:21;-9.60;99.90
45535;DHT22;35892;48.798;9.698;2022-12-18T05:02:48;-9.60;99.90
45535;DHT22;35892;48.798;9.698;2022-12-18T05:05:17;-9.50;99.90
45535;DHT22;35892;48.798;9.698;2022-12-18T05:07:46;-9.50;99.90
45535;DHT22;35892;48.798;9.698;2022-12-18T05:10:13;-9.50;99.90
45535;DHT22;35892;48.798;9.698;2022-12-18T05:12:40;-9.40;99.90
45535;DHT22;35892;48.798;9.698;2022-12-18T05:15:30;-9.50;99.90
45535;DHT22;35892;48.798;9.698;2022-12-18T05:18:00;-9.60;99.90
45535;DHT22;35892;48.798;9.698;2022-12-18T05:20:32;-9.60;99.90
45535;DHT22;35892;48.798;9.698;2022-12-18T05:22:59;-9.60;99.90
45535;DHT22;35892;48.798;9.698;2022-12-18T05:25:28;-9.60;99.90
45535;DHT22;35892;48.798;9.698;2022-12-18T05:27:57;-9.70;99.90
45535;DHT22;35892;48.798;9.698;2022-12-18T05:30:25;-9.80;99.90
45535;DHT22;35892;48.798;9.698;2022-12-18T05:32:54;-9.80;99.90
45535;DHT22;35892;48.798;9.698;2022-12-18T05:35:21;-9.80;99.90
45535;DHT22;35892;48.798;9.698;2022-12-18T05:37:50;-9.80;99.90
45535;DHT22;35892;48.798;9.698;2022-12-18T05:40:16;-9.70;99.90
45535;DHT22;35892;48.798;9.698;2022-12-18T05:42:43;-9.60;99.90
45535;DHT22;35892;48.798;9.698;2022-12-18T05:45:10;-9.60;99.90
45535;DHT22;35892;48.798;9.698;2022-12-18T05:47:36;-9.60;99.90
45535;DHT22;35892;48.798;9.698;2022-12-18T05:50:06;-9.60;99.90
45535;DHT22;35892;48.798;9.698;2022-12-18T05:52:33;-9.50;99.90
45535;DHT22;35892;48.798;9.698;2022-12-18T05:55:00;-9.60;99.90
45535;DHT22;35892;48.798;9.698;2022-12-18T05:57:26;-9.60;99.90
45535;DHT22;35892;48.798;9.698;2022-12-18T05:59:53;-9.60;99.90
45535;DHT22;35892;48.798;9.698;2022-12-18T06:02:20;-9.60;99.90
45535;DHT22;35892;48.798;9.698;2022-12-18T06:04:48;-9.60;99.90
45535;DHT22;35892;48.798;9.698;2022-12-18T06:07:17;-9.60;99.90
45535;DHT22;35892;48.798;9.698;2022-12-18T06:09:44;-9.50;99.90
45535;DHT22;35892;48.798;9.698;2022-12-18T06:12:13;-9.50;99.90
45535;DHT22;35892;48.798;9.698;2022-12-18T06:14:40;-9.40;99.90
45535;DHT22;35892;48.798;9.698;2022-12-18T06:17:09;-9.40;99.90
45535;DHT22;35892;48.798;9.698;2022-12-18T06:19:36;-9.50;99.90
45535;DHT22;35892;48.798;9.698;2022-12-18T06:22:03;-9.60;99.90
45535;DHT22;35892;48.798;9.698;2022-12-18T06:24:30;-9.60;99.90
45535;DHT22;35892;48.798;9.698;2022-12-18T06:26:59;-9.70;99.90
45535;DHT22;35892;48.798;9.698;2022-12-18T06:29:26;-9.70;99.90
45535;DHT22;35892;48.798;9.698;2022-12-18T06:31:57;-9.80;99.90
45535;DHT22;35892;48.798;9.698;2022-12-18T06:34:26;-9.80;99.90
45535;DHT22;35892;48.798;9.698;2022-12-18T06:36:53;-9.80;99.90
45535;DHT22;35892;48.798;9.698;2022-12-18T06:39:20;-9.60;99.90
45535;DHT22;35892;48.798;9.698;2022-12-18T06:41:47;-9.60;99.90
45535;DHT22;35892;48.798;9.698;2022-12-18T06:44:13;-9.70;99.90
45535;DHT22;35892;48.798;9.698;2022-12-18T06:46:40;-9.70;99.90
45535;DHT22;35892;48.798;9.698;2022-12-18T06:49:07;-9.70;99.90
45535;DHT22;35892;48.798;9.698;2022-12-18T06:51:39;-9.80;99.90
45535;DHT22;35892;48.798;9.698;2022-12-18T06:54:08;-9.70;99.90
45535;DHT22;35892;48.798;9.698;2022-12-18T06:56:35;-9.60;99.90
45535;DHT22;35892;48.798;9.698;2022-12-18T06:59:04;-9.60;99.90
45535;DHT22;35892;48.798;9.698;2022-12-18T07:01:33;-9.60;99.90
45535;DHT22;35892;48.798;9.698;2022-12-18T07:04:00;-9.70;99.90
45535;DHT22;35892;48.798;9.698;2022-12-18T07:06:27;-9.50;99.90
45535;DHT22;35892;48.798;9.698;2022-12-18T07:08:54;-9.40;99.90
45535;DHT22;35892;48.798;9.698;2022-12-18T07:11:22;-9.30;99.90
45535;DHT22;35892;48.798;9.698;2022-12-18T07:13:48;-9.20;99.90
45535;DHT22;35892;48.798;9.698;2022-12-18T07:16:17;-9.20;99.90
45535;DHT22;35892;48.798;9.698;2022-12-18T07:18:51;-9.10;99.90
45535;DHT22;35892;48.798;9.698;2022-12-18T07:21:19;-9.10;99.90
45535;DHT22;35892;48.798;9.698;2022-12-18T07:23:48;-9.20;99.90
45535;DHT22;35892;48.798;9.698;2022-12-18T07:26:21;-9.20;99.90
45535;DHT22;35892;48.798;9.698;2022-12-18T07:28:50;-9.20;99.90
45535;DHT22;35892;48.798;9.698;2022-12-18T07:31:20;-9.20;99.90
45535;DHT22;35892;48.798;9.698;2022-12-18T07:33:48;-9.20;99.90
45535;DHT22;35892;48.798;9.698;2022-12-18T07:36:18;-9.30;99.90
45535;DHT22;35892;48.798;9.698;2022-12-18T07:38:47;-9.30;99.90
45535;DHT22;35892;48.798;9.698;2022-12-18T07:41:18;-9.20;99.90
45535;DHT22;35892;48.798;9.698;2022-12-18T07:43:48;-9.20;99.90
45535;DHT22;35892;48.798;9.698;2022-12-18T07:46:17;-9.10;99.90
45535;DHT22;35892;48.798;9.698;2022-12-18T07:48:44;-9.10;99.90
45535;DHT22;35892;48.798;9.698;2022-12-18T07:51:16;-9.00;99.90
45535;DHT22;35892;48.798;9.698;2022-12-18T07:53:48;-9.00;99.90
45535;DHT22;35892;48.798;9.698;2022-12-18T07:56:18;-8.90;99.90
45535;DHT22;35892;48.798;9.698;2022-12-18T07:58:55;-8.90;99.90
45535;DHT22;35892;48.798;9.698;2022-12-18T08:01:22;-8.90;99.90
45535;DHT22;35892;48.798;9.698;2022-12-18T08:03:50;-8.90;99.90
45535;DHT22;35892;48.798;9.698;2022-12-18T08:06:18;-8.90;99.90
45535;DHT22;35892;48.798;9.698;2022-12-18T08:08:51;-8.90;99.90
45535;DHT22;35892;48.798;9.698;2022-12-18T08:11:26;-8.70;99.90
45535;DHT22;35892;48.798;9.698;2022-12-18T08:13:53;-8.50;99.90
45535;DHT22;35892;48.798;9.698;2022-12-18T08:16:23;-8.40;99.90
45535;DHT22;35892;48.798;9.698;2022-12-18T08:18:52;-8.40;99.90
45535;DHT22;35892;48.798;9.698;2022-12-18T08:21:27;-8.40;99.90
45535;DHT22;35892;48.798;9.698;2022-12-18T08:23:56;-8.30;99.90
45535;DHT22;35892;48.798;9.698;2022-12-18T08:26:27;-8.30;99.90
45535;DHT22;35892;48.798;9.698;2022-12-18T08:28:58;-8.20;99.90
45535;DHT22;35892;48.798;9.698;2022-12-18T08:31:26;-8.10;99.90
45535;DHT22;35892;48.798;9.698;2022-12-18T08:33:56;-8.10;99.90
45535;DHT22;35892;48.798;9.698;2022-12-18T08:36:25;-8.10;99.90
45535;DHT22;35892;48.798;9.698;2022-12-18T08:38:53;-8.10;99.90
45535;DHT22;35892;48.798;9.698;2022-12-18T08:41:22;-8.00;99.90
45535;DHT22;35892;48.798;9.698;2022-12-18T08:43:49;-7.90;99.90
45535;DHT22;35892;48.798;9.698;2022-12-18T08:46:39;-7.90;99.90
45535;DHT22;35892;48.798;9.698;2022-12-18T08:49:09;-7.90;99.90
45535;DHT22;35892;48.798;9.698;2022-12-18T08:51:37;-7.80;99.90
45535;DHT22;35892;48.798;9.698;2022-12-18T08:54:05;-7.80;99.90
45535;DHT22;35892;48.798;9.698;2022-12-18T08:56:34;-7.70;99.90
45535;DHT22;35892;48.798;9.698;2022-12-18T08:59:04;-7.70;99.90
45535;DHT22;35892;48.798;9.698;2022-12-18T09:01:31;-7.60;99.90
45535;DHT22;35892;48.798;9.698;2022-12-18T09:03:59;-7.50;99.90
45535;DHT22;35892;48.798;9.698;2022-12-18T09:06:26;-7.30;99.90
45535;DHT22;35892;48.798;9.698;2022-12-18T09:08:53;-7.20;99.90
45535;DHT22;35892;48.798;9.698;2022-12-18T09:11:22;-7.10;99.90
45535;DHT22;35892;48.798;9.698;2022-12-18T09:13:57;-7.00;99.90
45535;DHT22;35892;48.798;9.698;2022-12-18T09:16:25;-7.00;99.90
45535;DHT22;35892;48.798;9.698;2022-12-18T09:19:01;-6.90;99.90
45535;DHT22;35892;48.798;9.698;2022-12-18T09:21:34;-6.90;99.90
45535;DHT22;35892;48.798;9.698;2022-12-18T09:24:03;-6.90;99.90
45535;DHT22;35892;48.798;9.698;2022-12-18T09:26:34;-6.80;99.90
45535;DHT22;35892;48.798;9.698;2022-12-18T09:29:04;-6.70;99.90
45535;DHT22;35892;48.798;9.698;2022-12-18T09:31:31;-6.70;99.90
45535;DHT22;35892;48.798;9.698;2022-12-18T09:34:00;-6.60;99.90
45535;DHT22;35892;48.798;9.698;2022-12-18T09:36:29;-6.50;99.90
45535;DHT22;35892;48.798;9.698;2022-12-18T09:38:58;-6.50;99.90
45535;DHT22;35892;48.798;9.698;2022-12-18T09:46:41;-6.20;99.90
45535;DHT22;35892;48.798;9.698;2022-12-18T09:49:14;-6.20;99.90
45535;DHT22;35892;48.798;9.698;2022-12-18T09:51:54;-6.00;99.90
45535;DHT22;35892;48.798;9.698;2022-12-18T09:54:26;-5.90;99.90
45535;DHT22;35892;48.798;9.698;2022-12-18T09:56:59;-5.80;99.90
45535;DHT22;35892;48.798;9.698;2022-12-18T09:59:34;-5.80;99.90
45535;DHT22;35892;48.798;9.698;2022-12-18T10:02:26;-5.70;99.90
45535;DHT22;35892;48.798;9.698;2022-12-18T10:19:28;-5.00;99.90
45535;DHT22;35892;48.798;9.698;2022-12-18T10:28:19;-4.40;99.90
45535;DHT22;35892;48.798;9.698;2022-12-18T10:30:46;-4.30;99.90
45535;DHT22;35892;48.798;9.698;2022-12-18T10:33:20;-4.00;99.90
45535;DHT22;35892;48.798;9.698;2022-12-18T10:35:54;-3.90;99.90
45535;DHT22;35892;48.798;9.698;2022-12-18T10:38:32;-3.70;99.90
45535;DHT22;35892;48.798;9.698;2022-12-18T10:41:06;-3.50;99.90
45535;DHT22;35892;48.798;9.698;2022-12-18T10:43:40;-3.40;99.90
45535;DHT22;35892;48.798;9.698;2022-12-18T10:51:08;-3.10;99.90
45535;DHT22;35892;48.798;9.698;2022-12-18T10:53:41;-3.10;99.90
45535;DHT22;35892;48.798;9.698;2022-12-18T10:56:12;-3.10;99.90
45535;DHT22;35892;48.798;9.698;2022-12-18T10:58:41;-3.10;99.90
45535;DHT22;35892;48.798;9.698;2022-12-18T11:03:41;-3.00;99.90
45535;DHT22;35892;48.798;9.698;2022-12-18T11:06:11;-2.90;99.90
45535;DHT22;35892;48.798;9.698;2022-12-18T11:08:43;-2.80;99.90
45535;DHT22;35892;48.798;9.698;2022-12-18T11:11:25;-2.70;99.90
45535;DHT22;35892;48.798;9.698;2022-12-18T11:14:04;-2.50;99.90
45535;DHT22;35892;48.798;9.698;2022-12-18T11:16:42;-2.40;99.90
45535;DHT22;35892;48.798;9.698;2022-12-18T11:19:39;-2.30;99.90
45535;DHT22;35892;48.798;9.698;2022-12-18T11:22:28;-2.20;99.90
45535;DHT22;35892;48.798;9.698;2022-12-18T11:27:58;-2.10;99.90
45535;DHT22;35892;48.798;9.698;2022-12-18T11:30:29;-2.10;99.90
45535;DHT22;35892;48.798;9.698;2022-12-18T11:32:58;-2.00;99.90
45535;DHT22;35892;48.798;9.698;2022-12-18T11:38:24;-1.80;99.90
45535;DHT22;35892;48.798;9.698;2022-12-18T11:40:58;-1.80;99.90
45535;DHT22;35892;48.798;9.698;2022-12-18T11:43:29;-1.70;99.90
45535;DHT22;35892;48.798;9.698;2022-12-18T11:46:32;-1.70;99.90
45535;DHT22;35892;48.798;9.698;2022-12-18T11:54:44;-1.60;99.90
45535;DHT22;35892;48.798;9.698;2022-12-18T12:05:29;-1.70;99.90
45535;DHT22;35892;48.798;9.698;2022-12-18T12:16:37;-1.60;99.90
45535;DHT22;35892;48.798;9.698;2022-12-18T12:24:56;-1.50;99.90
45535;DHT22;35892;48.798;9.698;2022-12-18T12:32:49;-1.40;99.90
45535;DHT22;35892;48.798;9.698;2022-12-18T12:38:08;-1.30;99.90
45535;DHT22;35892;48.798;9.698;2022-12-18T12:40:44;-1.30;99.90
45535;DHT22;35892;48.798;9.698;2022-12-18T12:43:42;-1.30;99.90
45535;DHT22;35892;48.798;9.698;2022-12-18T12:46:31;-1.20;99.90
45535;DHT22;35892;48.798;9.698;2022-12-18T12:49:02;-1.20;99.90
45535;DHT22;35892;48.798;9.698;2022-12-18T12:51:42;-1.20;99.90
45535;DHT22;35892;48.798;9.698;2022-12-18T12:54:34;-1.10;99.90
45535;DHT22;35892;48.798;9.698;2022-12-18T12:57:48;-1.10;99.90
45535;DHT22;35892;48.798;9.698;2022-12-18T13:00:21;-1.00;99.90
45535;DHT22;35892;48.798;9.698;2022-12-18T13:05:57;-1.00;99.90
45535;DHT22;35892;48.798;9.698;2022-12-18T13:08:34;-1.00;99.90
45535;DHT22;35892;48.798;9.698;2022-12-18T13:17:15;-0.90;99.90
45535;DHT22;35892;48.798;9.698;2022-12-18T13:20:04;-0.90;99.90
45535;DHT22;35892;48.798;9.698;2022-12-18T13:25:56;-0.90;99.90
45535;DHT22;35892;48.798;9.698;2022-12-18T13:36:56;-0.90;99.90
45535;DHT22;35892;48.798;9.698;2022-12-18T13:39:33;-0.90;99.90
45535;DHT22;35892;48.798;9.698;2022-12-18T13:44:37;-0.90;99.90
45535;DHT22;35892;48.798;9.698;2022-12-18T13:49:59;-0.90;99.90
45535;DHT22;35892;48.798;9.698;2022-12-18T13:52:34;-1.00;99.90
45535;DHT22;35892;48.798;9.698;2022-12-18T13:55:11;-1.00;99.90
45535;DHT22;35892;48.798;9.698;2022-12-18T13:57:41;-1.10;99.90
45535;DHT22;35892;48.798;9.698;2022-12-18T14:00:28;-1.00;99.90
45535;DHT22;35892;48.798;9.698;2022-12-18T14:02:57;-1.00;99.90
45535;DHT22;35892;48.798;9.698;2022-12-18T14:05:31;-1.10;99.90
45535;DHT22;35892;48.798;9.698;2022-12-18T14:08:04;-1.00;99.90
45535;DHT22;35892;48.798;9.698;2022-12-18T14:10:39;-1.10;99.90
45535;DHT22;35892;48.798;9.698;2022-12-18T14:13:29;-1.10;99.90
45535;DHT22;35892;48.798;9.698;2022-12-18T14:15:57;-1.20;99.90
45535;DHT22;35892;48.798;9.698;2022-12-18T14:21:27;-1.20;99.90
45535;DHT22;35892;48.798;9.698;2022-12-18T14:26:32;-1.20;99.90
45535;DHT22;35892;48.798;9.698;2022-12-18T14:32:13;-1.40;99.90
45535;DHT22;35892;48.798;9.698;2022-12-18T14:34:50;-1.50;99.90
45535;DHT22;35892;48.798;9.698;2022-12-18T14:37:21;-1.60;99.90
45535;DHT22;35892;48.798;9.698;2022-12-18T14:40:03;-1.50;99.90
45535;DHT22;35892;48.798;9.698;2022-12-18T14:42:39;-1.60;99.90
45535;DHT22;35892;48.798;9.698;2022-12-18T14:45:35;-1.70;99.90
45535;DHT22;35892;48.798;9.698;2022-12-18T14:56:11;-1.90;99.90
45535;DHT22;35892;48.798;9.698;2022-12-18T14:58:47;-2.00;99.90
45535;DHT22;35892;48.798;9.698;2022-12-18T15:01:19;-2.00;99.90
45535;DHT22;35892;48.798;9.698;2022-12-18T15:03:49;-2.10;99.90
45535;DHT22;35892;48.798;9.698;2022-12-18T15:06:24;-2.10;99.90
45535;DHT22;35892;48.798;9.698;2022-12-18T15:08:54;-2.10;99.90
45535;DHT22;35892;48.798;9.698;2022-12-18T15:11:45;-2.20;99.90
45535;DHT22;35892;48.798;9.698;2022-12-18T15:14:45;-2.10;99.90
45535;DHT22;35892;48.798;9.698;2022-12-18T15:17:22;-2.20;99.90
45535;DHT22;35892;48.798;9.698;2022-12-18T15:20:03;-2.20;99.90
45535;DHT22;35892;48.798;9.698;2022-12-18T15:22:36;-2.20;99.90
45535;DHT22;35892;48.798;9.698;2022-12-18T15:25:27;-2.30;99.90
45535;DHT22;35892;48.798;9.698;2022-12-18T15:27:58;-2.30;99.90
45535;DHT22;35892;48.798;9.698;2022-12-18T15:30:29;-2.30;99.90
45535;DHT22;35892;48.798;9.698;2022-12-18T15:33:23;-2.40;99.90
45535;DHT22;35892;48.798;9.698;2022-12-18T15:36:01;-2.40;99.90
45535;DHT22;35892;48.798;9.698;2022-12-18T15:38:31;-2.40;99.90
45535;DHT22;35892;48.798;9.698;2022-12-18T15:41:05;-2.40;99.90
45535;DHT22;35892;48.798;9.698;2022-12-18T15:43:39;-2.40;99.90
45535;DHT22;35892;48.798;9.698;2022-12-18T15:46:16;-2.60;99.90
45535;DHT22;35892;48.798;9.698;2022-12-18T15:48:51;-2.60;99.90
45535;DHT22;35892;48.798;9.698;2022-12-18T15:51:32;-2.50;99.90
45535;DHT22;35892;48.798;9.698;2022-12-18T15:54:03;-2.60;99.90
45535;DHT22;35892;48.798;9.698;2022-12-18T15:56:31;-2.40;99.90
45535;DHT22;35892;48.798;9.698;2022-12-18T15:59:19;-2.50;99.90
45535;DHT22;35892;48.798;9.698;2022-12-18T16:01:53;-2.60;99.90
45535;DHT22;35892;48.798;9.698;2022-12-18T16:04:20;-2.60;99.90
45535;DHT22;35892;48.798;9.698;2022-12-18T16:06:48;-2.60;99.90
45535;DHT22;35892;48.798;9.698;2022-12-18T16:09:37;-2.80;99.90
45535;DHT22;35892;48.798;9.698;2022-12-18T16:12:06;-2.80;99.90
45535;DHT22;35892;48.798;9.698;2022-12-18T16:14:36;-2.80;99.90
45535;DHT22;35892;48.798;9.698;2022-12-18T16:17:10;-2.70;99.90
45535;DHT22;35892;48.798;9.698;2022-12-18T16:19:43;-2.70;99.90
45535;DHT22;35892;48.798;9.698;2022-12-18T16:22:27;-2.80;99.90
45535;DHT22;35892;48.798;9.698;2022-12-18T16:24:57;-2.90;99.90
45535;DHT22;35892;48.798;9.698;2022-12-18T16:27:24;-3.00;99.90
45535;DHT22;35892;48.798;9.698;2022-12-18T16:30:01;-3.10;99.90
45535;DHT22;35892;48.798;9.698;2022-12-18T16:32:28;-3.20;99.90
45535;DHT22;35892;48.798;9.698;2022-12-18T16:35:02;-3.30;99.90
45535;DHT22;35892;48.798;9.698;2022-12-18T16:37:31;-3.30;99.90
45535;DHT22;35892;48.798;9.698;2022-12-18T16:39:58;-3.40;99.90
45535;DHT22;35892;48.798;9.698;2022-12-18T16:42:27;-3.40;99.90
45535;DHT22;35892;48.798;9.698;2022-12-18T16:44:56;-3.30;99.90
45535;DHT22;35892;48.798;9.698;2022-12-18T16:47:23;-3.30;99.90
45535;DHT22;35892;48.798;9.698;2022-12-18T16:49:52;-3.40;99.90
45535;DHT22;35892;48.798;9.698;2022-12-18T16:52:21;-3.50;99.90
45535;DHT22;35892;48.798;9.698;2022-12-18T16:54:50;-3.50;99.90
45535;DHT22;35892;48.798;9.698;2022-12-18T16:57:19;-3.60;99.90
45535;DHT22;35892;48.798;9.698;2022-12-18T16:59:48;-3.70;99.90
45535;DHT22;35892;48.798;9.698;2022-12-18T17:02:24;-3.80;99.90
45535;DHT22;35892;48.798;9.698;2022-12-18T17:04:56;-3.90;99.90
45535;DHT22;35892;48.798;9.698;2022-12-18T17:07:26;-3.80;99.90
45535;DHT22;35892;48.798;9.698;2022-12-18T17:09:58;-3.80;99.90
45535;DHT22;35892;48.798;9.698;2022-12-18T17:12:25;-3.80;99.90
45535;DHT22;35892;48.798;9.698;2022-12-18T17:14:56;-3.90;99.90
45535;DHT22;35892;48.798;9.698;2022-12-18T17:17:27;-3.90;99.90
45535;DHT22;35892;48.798;9.698;2022-12-18T17:19:57;-3.90;99.90
45535;DHT22;35892;48.798;9.698;2022-12-18T17:22:25;-3.90;99.90
45535;DHT22;35892;48.798;9.698;2022-12-18T17:24:57;-3.90;99.90
45535;DHT22;35892;48.798;9.698;2022-12-18T17:27:26;-3.90;99.90
45535;DHT22;35892;48.798;9.698;2022-12-18T17:29:53;-3.80;99.90
45535;DHT22;35892;48.798;9.698;2022-12-18T17:32:22;-3.80;99.90
45535;DHT22;35892;48.798;9.698;2022-12-18T17:34:49;-3.90;99.90
45535;DHT22;35892;48.798;9.698;2022-12-18T17:37:16;-3.90;99.90
45535;DHT22;35892;48.798;9.698;2022-12-18T17:39:43;-4.00;99.90
45535;DHT22;35892;48.798;9.698;2022-12-18T17:42:10;-4.00;99.90
45535;DHT22;35892;48.798;9.698;2022-12-18T17:44:43;-4.00;99.90
45535;DHT22;35892;48.798;9.698;2022-12-18T17:47:11;-4.00;99.90
45535;DHT22;35892;48.798;9.698;2022-12-18T17:49:39;-4.00;99.90
45535;DHT22;35892;48.798;9.698;2022-12-18T17:52:08;-4.00;99.90
45535;DHT22;35892;48.798;9.698;2022-12-18T17:54:38;-4.00;99.90
45535;DHT22;35892;48.798;9.698;2022-12-18T17:57:07;-4.00;99.90
45535;DHT22;35892;48.798;9.698;2022-12-18T17:59:36;-4.00;99.90
45535;DHT22;35892;48.798;9.698;2022-12-18T18:02:03;-4.00;99.90
45535;DHT22;35892;48.798;9.698;2022-12-18T18:04:30;-3.90;99.90
45535;DHT22;35892;48.798;9.698;2022-12-18T18:06:59;-3.90;99.90
45535;DHT22;35892;48.798;9.698;2022-12-18T18:09:26;-3.80;99.90
45535;DHT22;35892;48.798;9.698;2022-12-18T18:11:55;-3.80;99.90
45535;DHT22;35892;48.798;9.698;2022-12-18T18:14:45;-3.80;99.90
45535;DHT22;35892;48.798;9.698;2022-12-18T18:17:14;-3.70;99.90
45535;DHT22;35892;48.798;9.698;2022-12-18T18:19:44;-3.70;99.90